Time;durP1;ratioP1;P1;durP2;ratioP2;P2;SDS_P1;SDS_P2;PMS_P1;PMS_P2;Temp;Humidity;BMP_temperature;BMP_pressure;BME280_temperature;BME280_humidity;BME280_pressure;Samples;Min_cycle;Max_cycle;Signal;HPM_P1;HPM_P2
2023/04/08 00:01:39;;;;;;;9.90;6.60;;;;;;;;;;5031956;28;20124;-68
2023/04/08 00:04:08;;;;;;;10.73;6.25;;;;;;;;;;5031525;28;20056;-68
2023/04/08 00:06:35;;;;;;;13.10;6.53;;;;;;;;;;5031518;28;20081;-67
2023/04/08 00:09:02;;;;;;;12.40;6.55;;;;;;;;;;5030990;28;20045;-68
2023/04/08 00:11:29;;;;;;;10.20;6.15;;;;;;;;;;5031444;28;20049;-68
2023/04/08 00:13:57;;;;;;;11.45;7.03;;;;;;;;;;5030800;28;20555;-68
2023/04/08 00:16:24;;;;;;;9.93;5.85;;;;;;;;;;5031233;28;20042;-68
2023/04/08 00:18:51;;;;;;;11.95;6.47;;;;;;;;;;5030891;28;20522;-68
2023/04/08 00:21:19;;;;;;;10.85;6.72;;;;;;;;;;5031325;28;20041;-69
2023/04/08 00:23:46;;;;;;;11.90;7.00;;;;;;;;;;5030627;28;20564;-68
2023/04/08 00:26:12;;;;;;;11.30;6.88;;;;;;;;;;5030881;28;20049;-68
2023/04/08 00:28:40;;;;;;;10.27;6.45;;;;;;;;;;5030383;28;20056;-67
2023/04/08 00:31:08;;;;;;;8.73;6.18;;;;;;;;;;5031253;28;20057;-68
2023/04/08 00:33:35;;;;;;;9.98;6.47;;;;;;;;;;5030488;28;20046;-67
2023/04/08 00:36:02;;;;;;;11.40;6.78;;;;;;;;;;5030611;28;20434;-68
2023/04/08 00:38:28;;;;;;;11.23;6.20;;;;;;;;;;5030951;28;20057;-67
2023/04/08 00:40:55;;;;;;;10.63;6.32;;;;;;;;;;5031116;28;20049;-68
2023/04/08 00:43:23;;;;;;;10.18;6.55;;;;;;;;;;5030878;28;20118;-68
2023/04/08 00:45:49;;;;;;;11.77;6.82;;;;;;;;;;5030942;28;20045;-68
2023/04/08 00:48:17;;;;;;;13.52;6.60;;;;;;;;;;5030565;28;20053;-68
2023/04/08 00:50:45;;;;;;;10.75;6.10;;;;;;;;;;5030247;28;20049;-68
2023/04/08 00:53:13;;;;;;;11.57;6.15;;;;;;;;;;5031097;28;20046;-68
2023/04/08 00:55:39;;;;;;;14.00;7.13;;;;;;;;;;5030747;28;20294;-68
2023/04/08 00:58:06;;;;;;;13.32;7.13;;;;;;;;;;5030634;28;20053;-68
2023/04/08 01:00:35;;;;;;;11.63;7.10;;;;;;;;;;5030477;28;20141;-68
2023/04/08 01:03:14;;;;;;;13.88;6.85;;;;;;;;;;5030637;28;20050;-68
2023/04/08 01:05:56;;;;;;;13.27;7.05;;;;;;;;;;5030685;28;20059;-68
2023/04/08 01:08:26;;;;;;;15.47;7.43;;;;;;;;;;5030179;28;20518;-68
2023/04/08 01:10:54;;;;;;;14.52;8.30;;;;;;;;;;5029412;28;20302;-68
2023/04/08 01:13:25;;;;;;;11.27;6.47;;;;;;;;;;5030154;28;20046;-68
2023/04/08 01:15:54;;;;;;;13.73;6.97;;;;;;;;;;5030015;28;20132;-68
2023/04/08 01:18:21;;;;;;;12.35;7.30;;;;;;;;;;5030263;28;20073;-68
2023/04/08 01:20:51;;;;;;;12.02;7.22;;;;;;;;;;5030113;28;20046;-68
2023/04/08 01:23:23;;;;;;;13.80;6.70;;;;;;;;;;5029987;28;20053;-68
2023/04/08 01:25:51;;;;;;;12.80;7.07;;;;;;;;;;5030568;28;20052;-68
2023/04/08 01:28:20;;;;;;;10.90;6.75;;;;;;;;;;5029620;28;20274;-68
2023/04/08 01:30:49;;;;;;;10.50;6.30;;;;;;;;;;5029844;28;20141;-68
2023/04/08 01:33:17;;;;;;;11.30;6.40;;;;;;;;;;5030068;28;20476;-68
2023/04/08 01:35:45;;;;;;;11.60;6.55;;;;;;;;;;5029902;28;20052;-68
2023/04/08 01:38:16;;;;;;;12.45;6.30;;;;;;;;;;5030058;28;20049;-68
2023/04/08 01:40:44;;;;;;;12.45;6.65;;;;;;;;;;5029861;28;20060;-68
2023/04/08 01:43:14;;;;;;;11.52;6.18;;;;;;;;;;5030520;28;20045;-68
2023/04/08 01:45:42;;;;;;;11.60;6.35;;;;;;;;;;5030711;28;20479;-68
2023/04/08 01:48:09;;;;;;;12.10;7.00;;;;;;;;;;5030148;28;20046;-67
2023/04/08 01:50:36;;;;;;;15.13;7.28;;;;;;;;;;5029772;28;20487;-68
2023/04/08 01:53:04;;;;;;;12.45;6.88;;;;;;;;;;5029982;28;20050;-68
2023/04/08 01:55:32;;;;;;;12.07;6.75;;;;;;;;;;5029919;28;20041;-68
2023/04/08 01:58:01;;;;;;;13.15;6.78;;;;;;;;;;5029860;28;20422;-68
2023/04/08 02:00:31;;;;;;;12.07;6.35;;;;;;;;;;5030478;28;20053;-68
2023/04/08 02:02:59;;;;;;;13.27;7.07;;;;;;;;;;5029882;28;20049;-68
2023/04/08 02:05:26;;;;;;;14.05;7.28;;;;;;;;;;5030507;28;20136;-67
2023/04/08 02:07:52;;;;;;;13.93;7.03;;;;;;;;;;5029174;28;20059;-68
2023/04/08 02:10:19;;;;;;;11.70;6.63;;;;;;;;;;5029998;28;20073;-68
2023/04/08 02:12:46;;;;;;;13.68;7.25;;;;;;;;;;5029716;28;20045;-67
2023/04/08 02:15:14;;;;;;;12.70;7.28;;;;;;;;;;5029885;28;20042;-68
2023/04/08 02:17:46;;;;;;;18.02;7.13;;;;;;;;;;5029522;28;20451;-68
2023/04/08 02:20:17;;;;;;;11.85;6.80;;;;;;;;;;5030494;28;20060;-67
2023/04/08 02:22:48;;;;;;;16.23;7.13;;;;;;;;;;5033381;28;20418;-68
2023/04/08 02:25:17;;;;;;;16.83;8.05;;;;;;;;;;5033568;28;20095;-68
2023/04/08 02:27:47;;;;;;;14.30;7.53;;;;;;;;;;5033195;28;20050;-68
2023/04/08 02:30:15;;;;;;;16.55;8.25;;;;;;;;;;5033362;28;20558;-68
2023/04/08 02:32:44;;;;;;;15.23;8.07;;;;;;;;;;5032784;28;20050;-68
2023/04/08 02:35:12;;;;;;;14.63;7.78;;;;;;;;;;5032916;28;20050;-68
2023/04/08 02:37:39;;;;;;;14.32;7.13;;;;;;;;;;5032692;28;20053;-68
2023/04/08 02:40:25;;;;;;;13.45;6.90;;;;;;;;;;5033525;28;20494;-68
2023/04/08 02:42:52;;;;;;;12.43;7.10;;;;;;;;;;5032790;28;20079;-68
2023/04/08 02:45:19;;;;;;;15.10;7.43;;;;;;;;;;5032653;28;20575;-68
2023/04/08 02:47:47;;;;;;;13.93;7.28;;;;;;;;;;5032234;28;20045;-67
2023/04/08 02:50:14;;;;;;;15.07;8.63;;;;;;;;;;5032513;28;20056;-68
2023/04/08 02:52:42;;;;;;;14.73;7.38;;;;;;;;;;5032934;28;20132;-69
2023/04/08 02:55:10;;;;;;;13.88;7.55;;;;;;;;;;5032945;28;20499;-67
2023/04/08 02:57:36;;;;;;;16.10;8.27;;;;;;;;;;5032840;28;20487;-68
2023/04/08 03:00:04;;;;;;;14.35;7.80;;;;;;;;;;5032578;28;20048;-68
2023/04/08 03:02:30;;;;;;;13.70;8.13;;;;;;;;;;5033215;28;20140;-68
2023/04/08 03:04:58;;;;;;;14.13;7.50;;;;;;;;;;5032777;28;20046;-68
2023/04/08 03:07:25;;;;;;;15.50;7.43;;;;;;;;;;5033220;28;20046;-67
2023/04/08 03:09:53;;;;;;;12.23;6.90;;;;;;;;;;5032365;28;20050;-68
2023/04/08 03:12:20;;;;;;;12.63;7.00;;;;;;;;;;5032684;28;20052;-67
2023/04/08 03:14:47;;;;;;;16.85;7.45;;;;;;;;;;5032255;28;20061;-67
2023/04/08 03:17:13;;;;;;;19.02;8.50;;;;;;;;;;5032825;28;20132;-68
2023/04/08 03:19:40;;;;;;;14.18;7.15;;;;;;;;;;5032262;28;20052;-68
2023/04/08 03:22:08;;;;;;;13.88;6.63;;;;;;;;;;5032465;28;20052;-67
2023/04/08 03:24:35;;;;;;;12.75;6.72;;;;;;;;;;5031966;28;20132;-68
2023/04/08 03:27:02;;;;;;;11.90;6.95;;;;;;;;;;5031821;28;20049;-67
2023/04/08 03:29:29;;;;;;;13.63;6.47;;;;;;;;;;5031927;28;20407;-67
2023/04/08 03:31:55;;;;;;;11.40;6.45;;;;;;;;;;5031606;28;20561;-68
2023/04/08 03:34:22;;;;;;;15.15;7.00;;;;;;;;;;5031530;28;20434;-67
2023/04/08 03:36:48;;;;;;;11.60;7.03;;;;;;;;;;5032590;28;20079;-67
2023/04/08 03:39:17;;;;;;;11.85;7.18;;;;;;;;;;5031842;28;20041;-67
2023/04/08 03:41:43;;;;;;;14.00;7.57;;;;;;;;;;5031841;28;20052;-68
2023/04/08 03:44:10;;;;;;;14.85;7.22;;;;;;;;;;5031750;28;20487;-68
2023/04/08 03:46:36;;;;;;;13.57;7.65;;;;;;;;;;5032048;28;20073;-68
2023/04/08 03:49:03;;;;;;;11.32;6.75;;;;;;;;;;5031555;28;20046;-68
2023/04/08 03:51:30;;;;;;;13.65;7.47;;;;;;;;;;5031513;28;20406;-67
2023/04/08 03:53:56;;;;;;;13.75;6.80;;;;;;;;;;5031990;28;20414;-68
2023/04/08 03:56:24;;;;;;;15.20;6.93;;;;;;;;;;5031335;28;20053;-68
2023/04/08 03:58:51;;;;;;;12.50;6.95;;;;;;;;;;5031837;28;20439;-67
2023/04/08 04:01:18;;;;;;;11.88;7.25;;;;;;;;;;5031445;28;20046;-68
2023/04/08 04:03:44;;;;;;;15.45;7.93;;;;;;;;;;5031665;28;20045;-67
2023/04/08 04:06:11;;;;;;;14.20;7.40;;;;;;;;;;5031603;28;20419;-68
2023/04/08 04:08:37;;;;;;;13.35;7.65;;;;;;;;;;5031525;28;20051;-68
2023/04/08 04:11:04;;;;;;;17.05;7.43;;;;;;;;;;5031501;28;20045;-68
2023/04/08 04:13:32;;;;;;;15.00;7.50;;;;;;;;;;5031778;28;20050;-67
2023/04/08 04:15:58;;;;;;;15.75;7.82;;;;;;;;;;5031415;28;20071;-68
2023/04/08 04:18:25;;;;;;;13.52;7.63;;;;;;;;;;5031310;28;20075;-68
2023/04/08 04:20:51;;;;;;;15.98;8.20;;;;;;;;;;5031353;28;20380;-67
2023/04/08 04:23:18;;;;;;;13.00;7.32;;;;;;;;;;5031070;28;20106;-68
2023/04/08 04:25:45;;;;;;;14.38;7.55;;;;;;;;;;5031325;28;20103;-68
2023/04/08 04:28:11;;;;;;;15.25;8.77;;;;;;;;;;5031365;28;20041;-67
2023/04/08 04:30:40;;;;;;;14.73;7.30;;;;;;;;;;5031202;28;20057;-69
2023/04/08 04:33:07;;;;;;;16.33;8.18;;;;;;;;;;5031181;28;20456;-68
2023/04/08 04:35:34;;;;;;;15.50;7.65;;;;;;;;;;5032706;22;20046;-66
2023/04/08 04:38:00;;;;;;;15.68;8.65;;;;;;;;;;5010827;28;20056;-65
2023/04/08 04:40:27;;;;;;;12.27;7.00;;;;;;;;;;5011298;28;20081;-66
2023/04/08 04:42:54;;;;;;;13.65;7.28;;;;;;;;;;5011135;28;20046;-66
2023/04/08 04:45:20;;;;;;;12.93;7.10;;;;;;;;;;5010974;28;20042;-66
2023/04/08 04:47:48;;;;;;;14.00;7.05;;;;;;;;;;5011612;28;20046;-66
2023/04/08 04:50:15;;;;;;;16.42;8.50;;;;;;;;;;5011165;28;20147;-66
2023/04/08 04:52:42;;;;;;;14.75;7.93;;;;;;;;;;5010988;28;20049;-67
2023/04/08 04:55:09;;;;;;;12.27;7.57;;;;;;;;;;5011251;28;20133;-67
2023/04/08 04:57:36;;;;;;;16.73;8.05;;;;;;;;;;5010918;28;20145;-66
2023/04/08 05:00:03;;;;;;;16.52;8.35;;;;;;;;;;5011061;28;20373;-66
2023/04/08 05:02:30;;;;;;;15.57;8.68;;;;;;;;;;5010842;28;20046;-65
2023/04/08 05:04:58;;;;;;;16.75;8.40;;;;;;;;;;5011031;28;20548;-67
2023/04/08 05:07:24;;;;;;;13.27;8.00;;;;;;;;;;5010793;28;20063;-65
2023/04/08 05:09:51;;;;;;;13.90;7.63;;;;;;;;;;5011058;28;20097;-66
2023/04/08 05:12:19;;;;;;;13.93;7.70;;;;;;;;;;5010790;28;20052;-65
2023/04/08 05:14:46;;;;;;;13.35;7.43;;;;;;;;;;5010911;28;20046;-65
2023/04/08 05:17:12;;;;;;;18.13;8.05;;;;;;;;;;5010484;28;20046;-66
2023/04/08 05:19:39;;;;;;;19.77;8.90;;;;;;;;;;5011218;28;20180;-67
2023/04/08 05:22:07;;;;;;;17.08;8.02;;;;;;;;;;5010820;28;20060;-65
2023/04/08 05:24:33;;;;;;;17.65;8.48;;;;;;;;;;5010773;28;20518;-65
2023/04/08 05:27:00;;;;;;;15.93;7.45;;;;;;;;;;5010843;28;20050;-65
2023/04/08 05:29:27;;;;;;;16.08;7.88;;;;;;;;;;5010490;28;20470;-66
2023/04/08 05:31:55;;;;;;;15.45;7.95;;;;;;;;;;5010779;28;20076;-67
2023/04/08 05:34:22;;;;;;;16.05;8.40;;;;;;;;;;5010595;28;20045;-66
2023/04/08 05:36:50;;;;;;;14.57;8.18;;;;;;;;;;5010774;28;20045;-67
2023/04/08 05:39:18;;;;;;;17.80;7.95;;;;;;;;;;5010214;28;20081;-67
2023/04/08 05:41:46;;;;;;;16.77;7.55;;;;;;;;;;5010855;28;20412;-66
2023/04/08 05:44:13;;;;;;;13.88;7.72;;;;;;;;;;5010799;28;20130;-65
2023/04/08 05:46:39;;;;;;;15.88;7.50;;;;;;;;;;5010656;28;20054;-65
2023/04/08 05:49:06;;;;;;;16.90;8.63;;;;;;;;;;5010361;28;20053;-67
2023/04/08 05:51:32;;;;;;;15.75;8.35;;;;;;;;;;5010460;28;20049;-66
2023/04/08 05:53:59;;;;;;;16.95;8.65;;;;;;;;;;5010407;28;20050;-66
2023/04/08 05:56:27;;;;;;;14.88;8.50;;;;;;;;;;5012669;28;20045;-66
2023/04/08 05:58:54;;;;;;;14.23;7.80;;;;;;;;;;5013827;28;20124;-67
2023/04/08 06:01:21;;;;;;;14.48;8.02;;;;;;;;;;5014404;28;20145;-67
2023/04/08 06:03:47;;;;;;;15.77;8.90;;;;;;;;;;5014011;28;20046;-66
2023/04/08 06:06:14;;;;;;;16.55;8.60;;;;;;;;;;5014231;28;20132;-66
2023/04/08 06:08:41;;;;;;;17.77;7.90;;;;;;;;;;5013859;28;20045;-66
2023/04/08 06:11:07;;;;;;;16.13;8.05;;;;;;;;;;5014178;28;20516;-65
2023/04/08 06:13:36;;;;;;;14.38;8.35;;;;;;;;;;5013798;28;20045;-66
2023/04/08 06:16:10;;;;;;;14.07;8.35;;;;;;;;;;5014128;28;20407;-67
2023/04/08 06:18:37;;;;;;;16.10;9.05;;;;;;;;;;5013828;28;20053;-65
2023/04/08 06:21:04;;;;;;;16.85;8.75;;;;;;;;;;5013880;28;20406;-66
2023/04/08 06:23:30;;;;;;;15.43;8.95;;;;;;;;;;5014152;28;20042;-67
2023/04/08 06:25:57;;;;;;;17.08;9.48;;;;;;;;;;5014012;28;20052;-67
2023/04/08 06:28:24;;;;;;;18.33;9.70;;;;;;;;;;5014114;28;20080;-67
2023/04/08 06:30:52;;;;;;;18.08;10.00;;;;;;;;;;5013635;28;20476;-66
2023/04/08 06:33:18;;;;;;;17.70;9.55;;;;;;;;;;5013980;28;20046;-66
2023/04/08 06:35:45;;;;;;;19.08;9.15;;;;;;;;;;5013069;28;20050;-67
2023/04/08 06:38:12;;;;;;;17.05;8.98;;;;;;;;;;5013626;28;20050;-66
2023/04/08 06:40:38;;;;;;;14.82;9.90;;;;;;;;;;5013488;28;20042;-67
2023/04/08 06:43:06;;;;;;;18.13;9.25;;;;;;;;;;5013744;28;20050;-67
2023/04/08 06:45:33;;;;;;;21.35;9.45;;;;;;;;;;5012851;28;20053;-66
2023/04/08 06:48:01;;;;;;;16.98;9.80;;;;;;;;;;5013441;28;20054;-66
2023/04/08 06:50:27;;;;;;;17.27;10.05;;;;;;;;;;5013045;28;20050;-67
2023/04/08 06:52:54;;;;;;;18.50;10.55;;;;;;;;;;5013463;28;20046;-65
2023/04/08 06:55:21;;;;;;;19.55;11.30;;;;;;;;;;5013003;28;20052;-67
2023/04/08 06:57:48;;;;;;;17.10;9.70;;;;;;;;;;5013351;28;20050;-66
2023/04/08 07:00:14;;;;;;;20.02;9.38;;;;;;;;;;5012980;28;20046;-66
2023/04/08 07:02:41;;;;;;;19.05;10.50;;;;;;;;;;5012971;28;20042;-66
2023/04/08 07:05:09;;;;;;;15.27;9.07;;;;;;;;;;5012949;28;20045;-66
2023/04/08 07:07:36;;;;;;;15.73;8.70;;;;;;;;;;5012867;28;20125;-66
2023/04/08 07:10:03;;;;;;;16.45;9.07;;;;;;;;;;5013246;28;20096;-65
2023/04/08 07:12:29;;;;;;;14.00;8.45;;;;;;;;;;5012316;28;20046;-65
2023/04/08 07:14:56;;;;;;;14.85;8.70;;;;;;;;;;5013058;28;20080;-66
2023/04/08 07:17:22;;;;;;;20.55;9.35;;;;;;;;;;5012726;28;20491;-66
2023/04/08 07:19:49;;;;;;;14.85;8.43;;;;;;;;;;5012852;28;20491;-66
2023/04/08 07:22:17;;;;;;;14.23;8.18;;;;;;;;;;5012762;28;20539;-67
2023/04/08 07:24:48;;;;;;;15.93;8.23;;;;;;;;;;5012591;28;20077;-66
2023/04/08 07:27:15;;;;;;;16.80;8.88;;;;;;;;;;5012583;28;20041;-67
2023/04/08 07:29:41;;;;;;;16.75;8.40;;;;;;;;;;5012818;28;20042;-66
2023/04/08 07:32:08;;;;;;;15.57;8.23;;;;;;;;;;5012325;28;20050;-67
2023/04/08 07:34:35;;;;;;;13.55;7.40;;;;;;;;;;5012343;28;20042;-66
2023/04/08 07:37:02;;;;;;;16.52;8.55;;;;;;;;;;5012271;28;20042;-66
2023/04/08 07:39:29;;;;;;;15.13;8.98;;;;;;;;;;5012751;28;20069;-67
2023/04/08 07:41:56;;;;;;;14.10;7.93;;;;;;;;;;5012669;28;20053;-66
2023/04/08 07:44:23;;;;;;;12.73;7.82;;;;;;;;;;5012396;28;20052;-67
2023/04/08 07:46:50;;;;;;;13.00;7.35;;;;;;;;;;5012136;28;20046;-66
2023/04/08 07:49:17;;;;;;;13.50;7.25;;;;;;;;;;5012528;28;20046;-66
2023/04/08 07:51:43;;;;;;;13.55;7.43;;;;;;;;;;5012040;28;20480;-66
2023/04/08 07:54:11;;;;;;;12.85;7.32;;;;;;;;;;5012109;28;20504;-65
2023/04/08 07:56:39;;;;;;;14.15;8.30;;;;;;;;;;5012141;28;20072;-66
2023/04/08 07:59:06;;;;;;;12.02;6.90;;;;;;;;;;5011760;28;20046;-66
2023/04/08 08:01:33;;;;;;;14.52;7.97;;;;;;;;;;5012172;28;20052;-66
2023/04/08 08:04:00;;;;;;;12.45;7.53;;;;;;;;;;5012068;28;20419;-67
2023/04/08 08:06:27;;;;;;;14.63;8.00;;;;;;;;;;5011773;28;20077;-66
2023/04/08 08:08:54;;;;;;;11.30;7.10;;;;;;;;;;5011398;28;20100;-66
2023/04/08 08:11:21;;;;;;;11.65;6.40;;;;;;;;;;5011601;28;20049;-66
2023/04/08 08:13:49;;;;;;;11.68;7.45;;;;;;;;;;5011294;28;20042;-66
2023/04/08 08:16:15;;;;;;;13.93;7.95;;;;;;;;;;5011899;28;20400;-65
2023/04/08 08:18:42;;;;;;;12.65;7.85;;;;;;;;;;5010857;28;20050;-66
2023/04/08 08:21:09;;;;;;;13.95;7.70;;;;;;;;;;5011567;28;20042;-67
2023/04/08 08:23:36;;;;;;;11.45;6.90;;;;;;;;;;5011446;28;20057;-65
2023/04/08 08:26:03;;;;;;;11.27;6.90;;;;;;;;;;5011910;28;20053;-66
2023/04/08 08:28:30;;;;;;;12.43;7.78;;;;;;;;;;5011383;28;20140;-67
2023/04/08 08:30:58;;;;;;;11.35;6.63;;;;;;;;;;5011692;28;20050;-66
2023/04/08 08:33:25;;;;;;;13.82;7.07;;;;;;;;;;5011217;28;20068;-66
2023/04/08 08:35:52;;;;;;;11.27;6.50;;;;;;;;;;5011209;28;20047;-65
2023/04/08 08:38:18;;;;;;;10.45;6.45;;;;;;;;;;5011624;28;20046;-66
2023/04/08 08:40:45;;;;;;;10.60;6.97;;;;;;;;;;5011795;28;20042;-66
2023/04/08 08:43:12;;;;;;;12.48;6.72;;;;;;;;;;5011451;28;20406;-65
2023/04/08 08:45:39;;;;;;;12.50;6.47;;;;;;;;;;5010853;28;20046;-66
2023/04/08 08:48:08;;;;;;;9.77;6.63;;;;;;;;;;5011456;28;20041;-65
2023/04/08 08:50:35;;;;;;;11.73;6.57;;;;;;;;;;5010788;28;20136;-66
2023/04/08 08:53:02;;;;;;;9.77;6.45;;;;;;;;;;5011100;28;20048;-65
2023/04/08 08:55:31;;;;;;;10.50;6.10;;;;;;;;;;5011040;28;20045;-67
2023/04/08 08:57:57;;;;;;;11.07;6.43;;;;;;;;;;5010995;28;20052;-66
2023/04/08 09:00:31;;;;;;;12.95;6.80;;;;;;;;;;5010752;28;20052;-65
2023/04/08 09:03:15;;;;;;;10.00;6.55;;;;;;;;;;5010978;28;20049;-66
2023/04/08 09:05:49;;;;;;;10.10;6.63;;;;;;;;;;5010525;28;20100;-66
2023/04/08 09:08:30;;;;;;;10.23;6.47;;;;;;;;;;5011082;28;20136;-66
2023/04/08 09:11:10;;;;;;;12.75;6.28;;;;;;;;;;5010766;28;20100;-66
2023/04/08 09:13:36;;;;;;;11.45;6.40;;;;;;;;;;5010953;28;20046;-66
2023/04/08 09:16:05;;;;;;;11.07;6.72;;;;;;;;;;5010600;28;20050;-66
2023/04/08 09:18:33;;;;;;;12.13;6.95;;;;;;;;;;5010775;28;20494;-65
2023/04/08 09:21:01;;;;;;;9.70;6.35;;;;;;;;;;5010650;28;20057;-66
2023/04/08 09:23:42;;;;;;;10.85;6.82;;;;;;;;;;5010929;28;20050;-67
2023/04/08 09:26:09;;;;;;;10.50;6.47;;;;;;;;;;5010656;28;20137;-66
2023/04/08 09:28:36;;;;;;;10.70;6.45;;;;;;;;;;5010915;28;20623;-67
2023/04/08 09:31:18;;;;;;;11.45;6.85;;;;;;;;;;5012058;28;20054;-65
2023/04/08 09:33:47;;;;;;;12.13;6.80;;;;;;;;;;5014951;28;20363;-66
2023/04/08 09:36:14;;;;;;;10.18;6.78;;;;;;;;;;5014106;28;20068;-66
2023/04/08 09:38:40;;;;;;;10.73;6.50;;;;;;;;;;5014613;28;20041;-68
2023/04/08 09:41:08;;;;;;;10.60;6.75;;;;;;;;;;5014288;28;20407;-65
2023/04/08 09:43:41;;;;;;;11.60;7.40;;;;;;;;;;5014525;28;20416;-67
2023/04/08 09:46:10;;;;;;;15.13;7.75;;;;;;;;;;5013931;28;20072;-66
2023/04/08 09:48:40;;;;;;;12.15;7.10;;;;;;;;;;5014207;28;20128;-67
2023/04/08 09:51:14;;;;;;;9.43;6.80;;;;;;;;;;5013890;28;20050;-67
2023/04/08 09:53:47;;;;;;;9.48;7.28;;;;;;;;;;5014126;28;20045;-66
2023/04/08 09:56:16;;;;;;;11.52;7.50;;;;;;;;;;5013748;28;20052;-66
2023/04/08 09:58:49;;;;;;;11.25;7.10;;;;;;;;;;5013903;28;20057;-69
2023/04/08 10:01:19;;;;;;;14.00;7.68;;;;;;;;;;5014071;28;20495;-69
2023/04/08 10:03:49;;;;;;;9.95;6.70;;;;;;;;;;5014320;28;20145;-69
2023/04/08 10:06:20;;;;;;;11.02;7.07;;;;;;;;;;5014002;28;20046;-69
2023/04/08 10:08:47;;;;;;;11.70;7.35;;;;;;;;;;5014262;28;20073;-69
2023/04/08 10:11:15;;;;;;;10.52;6.97;;;;;;;;;;5013999;28;20063;-69
2023/04/08 10:13:42;;;;;;;11.30;7.28;;;;;;;;;;5014112;28;20396;-68
2023/04/08 10:16:19;;;;;;;11.80;7.20;;;;;;;;;;5014090;28;20399;-68
2023/04/08 10:18:46;;;;;;;11.65;8.20;;;;;;;;;;5014033;28;20049;-68
2023/04/08 10:21:35;;;;;;;10.68;6.93;;;;;;;;;;5014002;28;20500;-68
2023/04/08 10:24:05;;;;;;;12.65;7.45;;;;;;;;;;5014185;28;20433;-69
2023/04/08 10:26:37;;;;;;;11.65;7.60;;;;;;;;;;5014079;28;20050;-68
2023/04/08 10:29:32;;;;;;;10.95;7.65;;;;;;;;;;5013894;28;20049;-68
2023/04/08 10:31:59;;;;;;;10.65;7.03;;;;;;;;;;5013852;28;20054;-67
2023/04/08 10:37:00;;;;;;;9.90;7.15;;;;;;;;;;5051469;28;20052;-67
2023/04/08 10:39:27;;;;;;;10.38;6.80;;;;;;;;;;5054060;28;20163;-67
2023/04/08 10:41:55;;;;;;;12.10;7.50;;;;;;;;;;5052801;28;20045;-67
2023/04/08 10:44:23;;;;;;;11.40;7.57;;;;;;;;;;5053838;28;20090;-67
2023/04/08 10:46:51;;;;;;;10.02;7.28;;;;;;;;;;5053174;28;20076;-73
2023/04/08 10:49:18;;;;;;;10.40;7.60;;;;;;;;;;5053780;28;20049;-68
2023/04/08 10:51:46;;;;;;;9.38;6.55;;;;;;;;;;5053954;28;20059;-67
2023/04/08 10:54:16;;;;;;;9.40;6.70;;;;;;;;;;5053744;28;20314;-67
2023/04/08 10:56:48;;;;;;;10.75;7.35;;;;;;;;;;5053500;28;20528;-67
2023/04/08 10:59:18;;;;;;;12.77;7.88;;;;;;;;;;5053047;28;20514;-67
2023/04/08 11:01:46;;;;;;;11.70;7.32;;;;;;;;;;5053358;28;20467;-67
2023/04/08 11:04:15;;;;;;;11.95;7.97;;;;;;;;;;5053455;28;20056;-67
2023/04/08 11:06:44;;;;;;;10.23;6.47;;;;;;;;;;5052938;28;20421;-68
2023/04/08 11:09:12;;;;;;;10.02;7.28;;;;;;;;;;5052199;28;20087;-67
2023/04/08 11:11:41;;;;;;;11.35;7.45;;;;;;;;;;5052706;28;20056;-68
2023/04/08 11:14:08;;;;;;;9.15;7.13;;;;;;;;;;5052432;28;20045;-68
2023/04/08 11:16:35;;;;;;;11.55;7.28;;;;;;;;;;5052686;28;20045;-67
2023/04/08 11:19:03;;;;;;;14.23;8.57;;;;;;;;;;5051672;28;20041;-68
2023/04/08 11:21:31;;;;;;;10.88;7.53;;;;;;;;;;5052375;28;20049;-67
2023/04/08 11:23:58;;;;;;;10.23;7.25;;;;;;;;;;5051659;28;20136;-68
2023/04/08 11:26:26;;;;;;;9.38;6.75;;;;;;;;;;5051762;28;20051;-68
2023/04/08 11:28:56;;;;;;;9.65;6.82;;;;;;;;;;5051734;28;20041;-68
2023/04/08 11:31:23;;;;;;;9.75;7.18;;;;;;;;;;5052040;28;20056;-68
2023/04/08 11:33:52;;;;;;;8.65;6.80;;;;;;;;;;5051380;28;20054;-68
2023/04/08 11:36:20;;;;;;;8.10;6.07;;;;;;;;;;5051853;28;20475;-68
2023/04/08 11:38:47;;;;;;;8.98;6.95;;;;;;;;;;5051253;28;20045;-68
2023/04/08 11:41:15;;;;;;;9.25;6.60;;;;;;;;;;5051876;28;20045;-68
2023/04/08 11:43:51;;;;;;;8.93;7.00;;;;;;;;;;5051403;28;20053;-68
2023/04/08 11:46:19;;;;;;;9.25;6.90;;;;;;;;;;5051493;28;20049;-68
2023/04/08 11:49:03;;;;;;;8.93;6.93;;;;;;;;;;5051845;28;20060;-68
2023/04/08 11:51:30;;;;;;;10.07;6.70;;;;;;;;;;5051846;28;20043;-68
2023/04/08 11:53:57;;;;;;;9.65;6.80;;;;;;;;;;5050618;28;20045;-68
2023/04/08 11:56:24;;;;;;;9.52;6.53;;;;;;;;;;5051527;28;20077;-68
2023/04/08 11:58:52;;;;;;;9.85;7.00;;;;;;;;;;5051440;28;20049;-69
2023/04/08 12:01:20;;;;;;;8.80;6.43;;;;;;;;;;5051157;28;20068;-68
2023/04/08 12:04:01;;;;;;;8.95;6.82;;;;;;;;;;5051458;28;20060;-68
2023/04/08 12:06:27;;;;;;;10.18;6.88;;;;;;;;;;5051309;28;20041;-67
2023/04/08 12:08:55;;;;;;;9.07;7.07;;;;;;;;;;5051025;28;20040;-67
2023/04/08 12:11:22;;;;;;;9.48;7.00;;;;;;;;;;5050900;28;20052;-70
2023/04/08 12:13:49;;;;;;;12.05;7.63;;;;;;;;;;5050907;28;20041;-69
2023/04/08 12:16:16;;;;;;;8.88;6.78;;;;;;;;;;5050490;28;20102;-69
2023/04/08 12:18:44;;;;;;;10.70;8.15;;;;;;;;;;5051317;28;20041;-69
2023/04/08 12:21:11;;;;;;;10.32;7.53;;;;;;;;;;5051580;28;20041;-69
2023/04/08 12:23:37;;;;;;;12.15;7.80;;;;;;;;;;5051373;28;20485;-69
2023/04/08 12:26:04;;;;;;;11.52;8.30;;;;;;;;;;5050564;28;20056;-69
2023/04/08 12:28:31;;;;;;;13.70;9.13;;;;;;;;;;5050461;28;20446;-69
2023/04/08 12:30:57;;;;;;;12.65;8.68;;;;;;;;;;5050533;28;20476;-69
2023/04/08 12:33:24;;;;;;;12.27;8.80;;;;;;;;;;5050754;28;20266;-67
2023/04/08 12:35:53;;;;;;;10.52;8.43;;;;;;;;;;5050365;28;20487;-67
2023/04/08 12:38:19;;;;;;;12.07;8.15;;;;;;;;;;5050408;28;20414;-69
2023/04/08 12:40:46;;;;;;;13.13;9.05;;;;;;;;;;5050763;28;20045;-67
2023/04/08 12:43:13;;;;;;;13.05;8.55;;;;;;;;;;5050662;28;20068;-67
2023/04/08 12:45:40;;;;;;;12.00;8.60;;;;;;;;;;5050601;28;20056;-69
2023/04/08 12:48:07;;;;;;;13.32;9.10;;;;;;;;;;5049836;28;20076;-69
2023/04/08 12:50:33;;;;;;;12.00;9.00;;;;;;;;;;5050565;28;20049;-69
2023/04/08 12:53:01;;;;;;;11.80;9.00;;;;;;;;;;5051040;28;20379;-67
2023/04/08 12:55:28;;;;;;;13.82;9.65;;;;;;;;;;5050195;28;20053;-67
2023/04/08 12:57:55;;;;;;;14.40;10.13;;;;;;;;;;5050192;28;20049;-67
2023/04/08 13:00:22;;;;;;;16.30;10.23;;;;;;;;;;5050836;28;20127;-69
2023/04/08 13:02:48;;;;;;;14.63;9.93;;;;;;;;;;5050536;28;20053;-67
2023/04/08 13:05:16;;;;;;;15.40;9.85;;;;;;;;;;5050156;28;20127;-67
2023/04/08 13:07:42;;;;;;;16.85;10.02;;;;;;;;;;5050026;28;20045;-67
2023/04/08 13:10:11;;;;;;;15.50;9.02;;;;;;;;;;5050033;28;20049;-67
2023/04/08 13:12:39;;;;;;;14.07;9.25;;;;;;;;;;5049396;28;20056;-67
2023/04/08 13:15:06;;;;;;;13.90;9.02;;;;;;;;;;5050026;28;20095;-67
2023/04/08 13:17:33;;;;;;;13.27;9.57;;;;;;;;;;5049755;28;20084;-67
2023/04/08 13:20:00;;;;;;;13.55;9.75;;;;;;;;;;5049840;28;20095;-68
2023/04/08 13:22:27;;;;;;;14.30;9.32;;;;;;;;;;5049645;28;20094;-68
2023/04/08 13:24:53;;;;;;;14.18;9.73;;;;;;;;;;5049468;28;20084;-68
2023/04/08 13:27:21;;;;;;;12.32;9.40;;;;;;;;;;5049180;28;20041;-67
2023/04/08 13:29:48;;;;;;;14.98;10.30;;;;;;;;;;5050134;28;20049;-67
2023/04/08 13:32:15;;;;;;;14.43;9.68;;;;;;;;;;5049577;28;20049;-67
2023/04/08 13:34:42;;;;;;;15.73;8.82;;;;;;;;;;5049366;28;20052;-68
2023/04/08 13:37:09;;;;;;;13.65;9.27;;;;;;;;;;5049588;28;20435;-67
2023/04/08 13:39:35;;;;;;;14.68;10.20;;;;;;;;;;5049695;28;20045;-67
2023/04/08 13:42:02;;;;;;;13.40;9.48;;;;;;;;;;5049911;28;20076;-68
2023/04/08 13:44:32;;;;;;;13.65;8.23;;;;;;;;;;5049181;28;20049;-68
2023/04/08 13:46:58;;;;;;;13.43;8.10;;;;;;;;;;5049781;28;20076;-67
2023/04/08 13:49:25;;;;;;;13.98;8.82;;;;;;;;;;5048931;28;20048;-67
2023/04/08 13:51:51;;;;;;;11.95;8.20;;;;;;;;;;5049993;28;20402;-69
2023/04/08 13:54:18;;;;;;;10.00;7.72;;;;;;;;;;5048933;28;20059;-67
2023/04/08 13:56:45;;;;;;;11.00;7.20;;;;;;;;;;5049403;28;20060;-67
2023/04/08 13:59:11;;;;;;;12.07;7.63;;;;;;;;;;5049280;28;20458;-67
2023/04/08 14:01:40;;;;;;;9.13;6.40;;;;;;;;;;5049728;28;20486;-67
2023/04/08 14:04:06;;;;;;;9.63;7.47;;;;;;;;;;5049677;28;20098;-67
2023/04/08 14:06:34;;;;;;;11.40;8.05;;;;;;;;;;5049274;28;20415;-67
2023/04/08 14:09:01;;;;;;;10.73;7.88;;;;;;;;;;5049331;28;20049;-67
2023/04/08 14:11:28;;;;;;;10.20;7.72;;;;;;;;;;5049510;28;20056;-67
2023/04/08 14:13:54;;;;;;;8.88;6.63;;;;;;;;;;5048825;28;20193;-67
2023/04/08 14:16:21;;;;;;;10.63;7.63;;;;;;;;;;5049803;28;20469;-67
2023/04/08 14:18:49;;;;;;;11.23;7.88;;;;;;;;;;5052524;28;20040;-67
2023/04/08 14:21:17;;;;;;;11.43;8.25;;;;;;;;;;5052842;28;20136;-67
2023/04/08 14:23:43;;;;;;;10.25;7.32;;;;;;;;;;5052919;28;20049;-68
2023/04/08 14:26:10;;;;;;;10.75;7.85;;;;;;;;;;5052759;28;20406;-68
2023/04/08 14:28:37;;;;;;;10.43;7.45;;;;;;;;;;5052890;28;20533;-68
2023/04/08 14:31:03;;;;;;;11.95;7.93;;;;;;;;;;5052783;28;20047;-68
2023/04/08 14:33:30;;;;;;;11.75;7.50;;;;;;;;;;5052542;28;20056;-67
2023/04/08 14:35:59;;;;;;;9.82;7.28;;;;;;;;;;5052564;28;20053;-67
2023/04/08 14:38:25;;;;;;;10.35;7.18;;;;;;;;;;5052803;28;20083;-67